createdAt,value
2023-05-15T00:01:14.813Z,2.45
2023-05-15T00:03:46.409Z,2.38
2023-05-15T00:06:18.209Z,2.42
2023-05-15T00:08:48.648Z,3.58
2023-05-15T00:11:18.667Z,3.30
2023-05-15T00:13:49.882Z,3.17
2023-05-15T00:16:20.848Z,3.28
2023-05-15T00:18:51.256Z,3.38
2023-05-15T00:21:23.542Z,2.58
2023-05-15T00:23:56.140Z,2.35
2023-05-15T00:26:27.560Z,2.63
2023-05-15T00:28:57.919Z,2.63
2023-05-15T00:31:27.983Z,2.42
2023-05-15T00:33:59.321Z,2.88
2023-05-15T00:36:30.891Z,2.50
2023-05-15T00:39:01.113Z,2.40
2023-05-15T00:41:35.642Z,2.50
2023-05-15T00:44:06.907Z,2.15
2023-05-15T00:46:39.649Z,2.20
2023-05-15T00:49:16.281Z,2.20
2023-05-15T00:51:47.213Z,2.30
2023-05-15T00:54:17.670Z,2.00
2023-05-15T00:56:49.999Z,2.30
2023-05-15T00:59:22.774Z,2.22
2023-05-15T01:01:55.162Z,2.10
2023-05-15T01:04:26.009Z,2.10
2023-05-15T01:06:57.364Z,2.22
2023-05-15T01:09:33.135Z,2.13
2023-05-15T01:12:06.793Z,2.60
2023-05-15T01:14:37.188Z,2.00
2023-05-15T01:17:09.424Z,1.88
2023-05-15T01:19:41.670Z,2.22
2023-05-15T01:22:41.847Z,2.22
2023-05-15T01:25:24.524Z,1.83
2023-05-15T01:27:58.658Z,1.95
2023-05-15T01:30:39.462Z,2.22
2023-05-15T01:33:37.479Z,1.80
2023-05-15T01:36:30.220Z,1.95
2023-05-15T01:39:05.401Z,2.30
2023-05-15T01:42:06.328Z,2.13
2023-05-15T01:44:44.969Z,1.90
2023-05-15T01:47:21.690Z,1.98
2023-05-15T01:49:54.896Z,2.00
2023-05-15T01:52:37.286Z,1.90
2023-05-15T01:55:10.503Z,1.80
2023-05-15T01:57:43.768Z,1.83
2023-05-15T02:00:17.673Z,2.00
2023-05-15T02:02:50.296Z,1.80
2023-05-15T02:05:23.460Z,1.80
2023-05-15T02:07:55.803Z,1.80
2023-05-15T02:10:28.704Z,1.90
2023-05-15T02:13:00.031Z,1.90
2023-05-15T02:15:33.045Z,1.95
2023-05-15T02:18:04.150Z,1.83
2023-05-15T02:20:35.124Z,2.08
2023-05-15T02:23:05.724Z,1.85
2023-05-15T02:26:09.988Z,1.90
2023-05-15T02:29:23.753Z,1.67
2023-05-15T02:32:28.958Z,1.60
2023-05-15T02:35:28.628Z,1.65
2023-05-15T02:38:02.292Z,1.80
2023-05-15T02:40:33.427Z,1.75
2023-05-15T02:43:05.114Z,1.65
2023-05-15T02:45:37.796Z,1.63
2023-05-15T02:48:10.495Z,1.77
2023-05-15T02:50:41.722Z,1.88
2023-05-15T02:53:16.986Z,1.80
2023-05-15T02:55:48.244Z,1.75
2023-05-15T02:58:18.583Z,1.50
2023-05-15T03:00:48.616Z,1.73
2023-05-15T03:03:20.085Z,1.83
2023-05-15T03:05:50.556Z,1.63
2023-05-15T03:08:22.154Z,1.85
2023-05-15T03:10:53.061Z,1.85
2023-05-15T03:13:24.057Z,1.85
2023-05-15T03:15:55.863Z,2.13
2023-05-15T03:18:26.974Z,1.60
2023-05-15T03:20:57.823Z,1.98
2023-05-15T03:23:27.849Z,1.60
2023-05-15T03:25:59.848Z,1.60
2023-05-15T03:28:30.143Z,1.77
2023-05-15T03:31:00.299Z,1.50
2023-05-15T03:33:30.567Z,1.80
2023-05-15T03:36:01.431Z,1.60
2023-05-15T03:38:31.920Z,1.73
2023-05-15T03:41:04.167Z,1.50
2023-05-15T03:43:35.989Z,1.70
2023-05-15T03:46:07.090Z,1.52
2023-05-15T03:48:38.306Z,1.55
2023-05-15T03:51:09.863Z,1.60
2023-05-15T03:53:42.847Z,1.73
2023-05-15T03:56:14.478Z,1.50
2023-05-15T03:58:45.460Z,1.60
2023-05-15T04:01:16.252Z,1.70
2023-05-15T04:03:46.812Z,1.70
2023-05-15T04:06:17.558Z,1.73
2023-05-15T04:08:48.885Z,1.63
2023-05-15T04:11:19.868Z,1.60
2023-05-15T04:13:51.250Z,1.80
2023-05-15T04:16:21.474Z,1.65
2023-05-15T04:18:53.356Z,2.13
2023-05-15T04:21:24.440Z,1.85
2023-05-15T04:23:56.308Z,1.42
2023-05-15T04:26:26.742Z,1.42
2023-05-15T04:29:03.851Z,1.42
2023-05-15T04:31:36.546Z,1.80
2023-05-15T04:34:06.803Z,2.00
2023-05-15T04:36:37.593Z,1.70
2023-05-15T04:39:09.915Z,1.73
2023-05-15T04:41:40.064Z,1.83
2023-05-15T04:44:10.810Z,1.70
2023-05-15T04:46:42.138Z,1.92
2023-05-15T04:49:12.413Z,1.60
2023-05-15T04:51:44.640Z,1.65
2023-05-15T04:54:15.999Z,1.67
2023-05-15T04:56:47.569Z,1.73
2023-05-15T04:59:19.015Z,1.80
2023-05-15T05:01:49.352Z,1.60
2023-05-15T05:04:23.174Z,1.45
2023-05-15T05:06:54.051Z,1.48
2023-05-15T05:09:24.983Z,1.58
2023-05-15T05:11:55.131Z,1.95
2023-05-15T05:14:25.265Z,1.40
2023-05-15T05:16:56.184Z,1.55
2023-05-15T05:19:28.614Z,1.60
2023-05-15T05:22:00.606Z,1.70
2023-05-15T05:24:39.667Z,1.60
2023-05-15T05:27:10.624Z,1.52
2023-05-15T05:29:42.361Z,1.80
2023-05-15T05:32:19.468Z,1.63
2023-05-15T05:34:50.460Z,1.63
2023-05-15T05:37:23.367Z,1.60
2023-05-15T05:39:54.515Z,1.65
2023-05-15T05:42:25.483Z,1.45
2023-05-15T05:44:56.365Z,1.52
2023-05-15T05:47:29.847Z,1.70
2023-05-15T05:50:01.837Z,1.80
2023-05-15T05:52:32.365Z,1.42
2023-05-15T05:55:02.426Z,1.63
2023-05-15T05:57:33.442Z,1.42
2023-05-15T06:00:03.716Z,1.50
2023-05-15T06:02:43.199Z,1.70
2023-05-15T06:05:13.515Z,1.80
2023-05-15T06:07:44.265Z,1.40
2023-05-15T06:10:16.190Z,1.52
2023-05-15T06:12:48.624Z,1.63
2023-05-15T06:15:19.211Z,1.65
2023-05-15T06:17:49.256Z,1.42
2023-05-15T06:20:20.728Z,1.30
2023-05-15T06:22:52.926Z,1.60
2023-05-15T06:25:24.116Z,1.70
2023-05-15T06:27:54.489Z,2.05
2023-05-15T06:30:25.515Z,1.52
2023-05-15T06:32:56.009Z,1.35
2023-05-15T06:35:27.319Z,1.67
2023-05-15T06:37:58.530Z,1.52
2023-05-15T06:40:30.367Z,1.50
2023-05-15T06:43:00.924Z,1.23
2023-05-15T06:45:30.985Z,1.63
2023-05-15T06:48:02.121Z,1.65
2023-05-15T06:50:33.106Z,1.65
2023-05-15T06:53:04.025Z,1.33
2023-05-15T06:55:36.087Z,1.40
2023-05-15T06:58:07.011Z,1.42
2023-05-15T07:00:38.676Z,1.35
2023-05-15T07:03:08.900Z,1.38
2023-05-15T07:05:39.084Z,1.42
2023-05-15T07:08:09.097Z,1.60
2023-05-15T07:10:40.508Z,1.40
2023-05-15T07:13:10.718Z,1.23
2023-05-15T07:15:42.423Z,1.30
2023-05-15T07:18:12.692Z,1.50
2023-05-15T07:20:42.697Z,1.63
2023-05-15T07:23:12.932Z,1.80
2023-05-15T07:25:43.502Z,1.52
2023-05-15T07:28:15.216Z,1.58
2023-05-15T07:30:45.242Z,1.40
2023-05-15T07:33:15.286Z,1.38
2023-05-15T07:35:45.495Z,1.35
2023-05-15T07:38:16.818Z,1.58
2023-05-15T07:40:47.270Z,1.48
2023-05-15T07:43:17.374Z,1.67
2023-05-15T07:45:48.413Z,1.80
2023-05-15T07:48:22.491Z,1.65
2023-05-15T07:50:54.956Z,1.70
2023-05-15T07:53:25.834Z,1.70
2023-05-15T07:55:55.917Z,1.88
2023-05-15T07:58:27.031Z,1.95
2023-05-15T08:00:57.531Z,1.73
2023-05-15T08:03:27.859Z,1.42
2023-05-15T08:05:58.692Z,1.30
2023-05-15T08:08:29.470Z,1.35
2023-05-15T08:11:00.366Z,1.40
2023-05-15T08:13:31.322Z,1.27
2023-05-15T08:16:02.542Z,1.60
2023-05-15T08:18:34.754Z,1.27
2023-05-15T08:21:05.840Z,1.33
2023-05-15T08:23:35.920Z,1.50
2023-05-15T08:26:06.340Z,1.30
2023-05-15T08:28:36.361Z,1.15
2023-05-15T08:31:07.367Z,1.27
2023-05-15T08:33:37.626Z,1.40
2023-05-15T08:36:07.980Z,1.20
2023-05-15T08:38:38.200Z,1.30
2023-05-15T08:41:14.854Z,1.30
2023-05-15T08:43:47.540Z,1.20
2023-05-15T08:46:17.952Z,1.00
2023-05-15T08:48:49.432Z,1.20
2023-05-15T08:51:20.312Z,1.20
2023-05-15T08:53:51.322Z,1.33
2023-05-15T08:56:22.730Z,1.20
2023-05-15T08:58:54.919Z,1.30
2023-05-15T09:01:25.448Z,1.25
2023-05-15T09:03:58.734Z,1.13
2023-05-15T09:06:30.390Z,1.15
2023-05-15T09:09:04.374Z,1.10
2023-05-15T09:11:35.713Z,1.30
2023-05-15T09:14:06.410Z,1.33
2023-05-15T09:16:37.188Z,1.20
2023-05-15T09:19:09.605Z,1.20
2023-05-15T09:21:40.566Z,1.40
2023-05-15T09:24:25.999Z,1.27
2023-05-15T09:27:10.707Z,1.40
2023-05-15T09:29:42.238Z,1.30
2023-05-15T09:32:16.595Z,1.02
2023-05-15T09:34:47.733Z,1.23
2023-05-15T09:37:47.513Z,1.30
2023-05-15T09:40:22.357Z,1.10
2023-05-15T09:42:55.661Z,1.15
2023-05-15T09:45:32.153Z,1.20
2023-05-15T09:48:06.202Z,1.20
2023-05-15T09:50:39.258Z,1.15
2023-05-15T09:53:14.510Z,1.20
2023-05-15T09:55:45.992Z,1.05
2023-05-15T09:58:19.228Z,1.10
2023-05-15T10:00:50.712Z,1.23
2023-05-15T10:03:23.743Z,0.90
2023-05-15T10:06:04.210Z,1.10
2023-05-15T10:08:35.881Z,1.08
2023-05-15T10:11:07.494Z,1.20
2023-05-15T10:13:39.386Z,1.30
2023-05-15T10:16:11.520Z,1.02
2023-05-15T10:26:45.525Z,1.15
2023-05-15T10:29:19.047Z,1.73
2023-05-15T10:31:51.284Z,1.30
2023-05-15T10:34:22.841Z,1.45
2023-05-15T10:36:54.329Z,1.48
2023-05-15T10:39:26.486Z,1.23
2023-05-15T10:41:58.169Z,1.17
2023-05-15T10:44:28.758Z,1.23
2023-05-15T10:46:58.818Z,1.08
2023-05-15T10:49:30.459Z,1.15
2023-05-15T10:52:03.766Z,1.15
2023-05-15T10:54:35.116Z,1.00
2023-05-15T10:57:06.880Z,1.10
2023-05-15T10:59:38.640Z,1.65
2023-05-15T11:02:40.308Z,1.23
2023-05-15T11:05:12.257Z,1.65
2023-05-15T11:07:42.764Z,1.67
2023-05-15T11:10:32.468Z,1.17
2023-05-15T11:13:28.814Z,0.93
2023-05-15T11:16:00.298Z,1.10
2023-05-15T11:18:31.738Z,1.10
2023-05-15T11:21:36.913Z,1.35
2023-05-15T11:24:09.584Z,1.10
2023-05-15T11:26:44.502Z,1.30
2023-05-15T11:29:22.016Z,1.08
2023-05-15T11:31:52.180Z,0.85
2023-05-15T11:34:53.431Z,1.30
2023-05-15T11:37:49.821Z,1.30
2023-05-15T11:40:29.309Z,1.25
2023-05-15T11:43:06.848Z,1.10
2023-05-15T11:45:39.873Z,1.50
2023-05-15T11:48:16.042Z,1.30
2023-05-15T11:50:48.865Z,1.40
2023-05-15T11:53:21.164Z,1.23
2023-05-15T11:55:56.348Z,1.40
2023-05-15T11:58:29.088Z,1.40
2023-05-15T12:01:01.006Z,1.45
2023-05-15T12:03:38.756Z,1.45
2023-05-15T12:06:09.291Z,1.17
2023-05-15T12:08:40.663Z,1.13
2023-05-15T12:11:11.281Z,1.30
2023-05-15T12:13:41.312Z,1.38
2023-05-15T12:16:11.582Z,1.42
2023-05-15T12:18:41.672Z,1.40
2023-05-15T12:21:13.575Z,1.40
2023-05-15T12:23:53.296Z,1.52
2023-05-15T12:26:32.158Z,1.58
2023-05-15T12:29:03.576Z,1.92
2023-05-15T12:31:38.048Z,1.45
2023-05-15T12:34:09.547Z,1.50
2023-05-15T12:36:43.531Z,1.85
2023-05-15T12:39:14.971Z,1.27
2023-05-15T12:41:47.779Z,1.30
2023-05-15T12:44:19.933Z,1.40
2023-05-15T12:46:50.487Z,1.10
2023-05-15T12:49:24.895Z,1.17
2023-05-15T12:51:55.233Z,1.10
2023-05-15T12:54:30.159Z,1.00
2023-05-15T12:57:02.182Z,1.10
2023-05-15T12:59:33.062Z,1.00
2023-05-15T13:02:03.516Z,0.82
2023-05-15T13:04:35.097Z,1.30
2023-05-15T13:07:06.692Z,1.13
2023-05-15T13:09:38.153Z,0.93
2023-05-15T13:12:10.156Z,1.20
2023-05-15T13:14:41.094Z,1.33
2023-05-15T13:17:12.161Z,1.10
2023-05-15T13:19:43.735Z,0.95
2023-05-15T13:22:15.181Z,0.70
2023-05-15T13:24:49.378Z,0.93
2023-05-15T13:27:20.166Z,0.88
2023-05-15T13:29:51.536Z,0.90
2023-05-15T13:32:21.892Z,0.80
2023-05-15T13:34:56.032Z,0.82
2023-05-15T13:37:30.222Z,0.90
2023-05-15T13:40:01.500Z,0.85
2023-05-15T13:42:32.439Z,0.88
2023-05-15T13:45:05.299Z,0.63
2023-05-15T13:47:38.121Z,2.53
2023-05-15T13:50:11.225Z,5.32
2023-05-15T13:52:43.038Z,3.63
2023-05-15T13:55:14.930Z,3.35
2023-05-15T13:57:47.568Z,5.25
2023-05-15T14:00:19.547Z,4.10
2023-05-15T14:02:50.730Z,3.35
2023-05-15T14:05:21.508Z,4.50
2023-05-15T14:07:51.638Z,8.13
2023-05-15T14:10:21.764Z,5.15
2023-05-15T14:12:53.585Z,5.97
2023-05-15T14:15:24.962Z,3.40
2023-05-15T14:17:56.499Z,3.88
2023-05-15T14:20:27.095Z,5.75
2023-05-15T14:22:59.123Z,3.40
2023-05-15T14:25:30.519Z,5.00
2023-05-15T14:28:01.417Z,3.95
2023-05-15T14:30:31.786Z,3.10
2023-05-15T14:33:05.288Z,3.40
2023-05-15T14:35:36.508Z,7.50
2023-05-15T14:38:07.518Z,4.10
2023-05-15T14:40:38.692Z,4.00
2023-05-15T14:43:09.493Z,3.92
2023-05-15T14:45:40.564Z,4.35
2023-05-15T14:48:11.219Z,4.60
2023-05-15T14:50:42.611Z,3.70
2023-05-15T14:53:13.818Z,3.22
2023-05-15T14:55:44.647Z,3.58
2023-05-15T14:58:15.579Z,4.53
2023-05-15T15:00:47.030Z,6.20
2023-05-15T15:03:17.850Z,3.25
2023-05-15T15:05:48.738Z,3.72
2023-05-15T15:08:19.215Z,3.17
2023-05-15T15:10:50.018Z,4.68
2023-05-15T15:13:21.638Z,5.93
2023-05-15T15:15:52.270Z,5.25
2023-05-15T15:18:25.042Z,3.10
2023-05-15T15:20:55.444Z,7.05
2023-05-15T15:23:26.309Z,4.95
2023-05-15T15:25:56.504Z,2.90
2023-05-15T15:28:28.344Z,4.45
2023-05-15T15:31:00.036Z,4.50
2023-05-15T15:33:30.496Z,4.80
2023-05-15T15:36:01.385Z,3.88
2023-05-15T15:38:32.503Z,4.30
2023-05-15T15:41:07.405Z,3.55
2023-05-15T15:43:39.112Z,3.90
2023-05-15T15:46:09.547Z,3.08
2023-05-15T15:48:41.066Z,0.77
2023-05-15T15:51:12.312Z,0.73
2023-05-15T15:53:43.876Z,0.73
2023-05-15T15:56:15.555Z,0.70
2023-05-15T15:58:46.499Z,0.90
2023-05-15T16:01:17.213Z,0.60
2023-05-15T16:03:47.540Z,0.73
2023-05-15T16:06:18.813Z,0.88
2023-05-15T16:08:49.685Z,0.70
2023-05-15T16:11:22.406Z,0.60
2023-05-15T16:13:53.624Z,0.63
2023-05-15T16:16:25.354Z,0.65
2023-05-15T16:18:56.684Z,0.88
2023-05-15T16:21:28.166Z,0.80
2023-05-15T16:23:59.224Z,0.73
2023-05-15T16:26:30.308Z,0.68
2023-05-15T16:29:02.186Z,0.80
2023-05-15T16:31:34.393Z,0.70
2023-05-15T16:34:06.890Z,0.85
2023-05-15T16:36:37.879Z,0.70
2023-05-15T16:39:09.029Z,1.38
2023-05-15T16:41:39.232Z,1.15
2023-05-15T16:44:13.310Z,0.70
2023-05-15T16:46:44.312Z,0.70
2023-05-15T16:49:14.568Z,0.73
2023-05-15T16:51:48.691Z,1.13
2023-05-15T16:54:21.735Z,1.40
2023-05-15T16:56:52.691Z,1.00
2023-05-15T16:59:24.062Z,0.80
2023-05-15T17:01:57.368Z,0.70
2023-05-15T17:04:31.455Z,0.60
2023-05-15T17:07:05.337Z,0.80
2023-05-15T17:09:38.331Z,0.80
2023-05-15T17:12:14.081Z,0.68
2023-05-15T17:14:46.137Z,0.85
2023-05-15T17:17:18.339Z,0.75
2023-05-15T17:19:50.388Z,1.13
2023-05-15T17:22:21.902Z,0.85
2023-05-15T17:24:54.155Z,0.68
2023-05-15T17:27:25.628Z,1.00
2023-05-15T17:29:57.442Z,0.80
2023-05-15T17:32:27.973Z,0.98
2023-05-15T17:35:02.095Z,0.90
2023-05-15T17:37:36.489Z,1.10
2023-05-15T17:40:08.088Z,0.77
2023-05-15T17:42:38.584Z,0.80
2023-05-15T17:45:11.460Z,1.00
2023-05-15T17:47:43.392Z,0.95
2023-05-15T17:50:21.523Z,0.93
2023-05-15T17:52:54.461Z,1.00
2023-05-15T17:55:25.696Z,1.13
2023-05-15T17:57:56.255Z,1.20
2023-05-15T18:00:27.110Z,1.35
2023-05-15T18:02:58.918Z,1.30
2023-05-15T18:05:29.630Z,1.00
2023-05-15T18:08:01.671Z,1.30
2023-05-15T18:10:32.555Z,1.40
2023-05-15T18:13:02.615Z,1.20
2023-05-15T18:15:38.163Z,1.45
2023-05-15T18:18:09.770Z,1.75
2023-05-15T18:20:40.563Z,1.40
2023-05-15T18:23:12.690Z,1.50
2023-05-15T18:25:45.050Z,1.55
2023-05-15T18:28:20.383Z,1.50
2023-05-15T18:30:52.516Z,1.50
2023-05-15T18:33:22.864Z,1.25
2023-05-15T18:35:55.275Z,1.73
2023-05-15T18:38:27.851Z,1.80
2023-05-15T18:40:58.198Z,1.77
2023-05-15T18:43:28.989Z,1.75
2023-05-15T18:45:59.522Z,1.67
2023-05-15T18:48:33.759Z,1.60
2023-05-15T18:51:07.732Z,1.38
2023-05-15T18:53:40.776Z,1.55
2023-05-15T18:56:12.922Z,2.28
2023-05-15T18:58:45.007Z,2.70
2023-05-15T19:01:16.597Z,1.95
2023-05-15T19:03:47.136Z,1.92
2023-05-15T19:06:21.883Z,1.60
2023-05-15T19:08:53.050Z,1.50
2023-05-15T19:11:27.679Z,1.40
2023-05-15T19:13:58.681Z,1.50
2023-05-15T19:16:30.004Z,1.33
2023-05-15T19:19:00.809Z,1.27
2023-05-15T19:21:34.495Z,1.50
2023-05-15T19:24:06.320Z,1.33
2023-05-15T19:26:37.585Z,1.55
2023-05-15T19:29:08.723Z,1.10
2023-05-15T19:31:40.787Z,1.35
2023-05-15T19:34:13.142Z,1.33
2023-05-15T19:36:43.425Z,1.60
2023-05-15T19:39:18.155Z,1.50
2023-05-15T19:41:49.349Z,1.50
2023-05-15T19:44:20.417Z,1.48
2023-05-15T19:46:52.587Z,1.20
2023-05-15T19:49:23.785Z,1.20
2023-05-15T19:51:54.912Z,1.67
2023-05-15T19:54:27.870Z,1.63
2023-05-15T19:57:01.375Z,1.38
2023-05-15T19:59:32.606Z,1.40
2023-05-15T20:02:04.437Z,1.30
2023-05-15T20:04:37.274Z,1.30
2023-05-15T20:07:07.807Z,1.40
2023-05-15T20:09:41.418Z,1.30
2023-05-15T20:12:11.702Z,1.52
2023-05-15T20:14:45.902Z,1.60
2023-05-15T20:17:16.851Z,1.70
2023-05-15T20:19:49.568Z,1.40
2023-05-15T20:22:20.057Z,1.40
2023-05-15T20:24:53.201Z,1.50
2023-05-15T20:27:24.197Z,1.20
2023-05-15T20:29:54.530Z,1.50
2023-05-15T20:32:25.785Z,1.45
2023-05-15T20:34:57.304Z,2.05
2023-05-15T20:40:29.173Z,1.30
2023-05-15T20:43:00.722Z,1.30
2023-05-15T20:45:31.118Z,1.25
2023-05-15T20:48:03.964Z,1.50
2023-05-15T20:50:38.327Z,1.45
2023-05-15T20:53:09.746Z,1.65
2023-05-15T20:55:40.922Z,1.60
2023-05-15T20:58:13.816Z,1.23
2023-05-15T21:00:45.446Z,1.20
2023-05-15T21:03:17.175Z,1.20
2023-05-15T21:05:48.732Z,1.50
2023-05-15T21:08:20.173Z,1.30
2023-05-15T21:10:55.796Z,1.42
2023-05-15T21:13:26.797Z,1.60
2023-05-15T21:15:58.878Z,1.48
2023-05-15T21:18:32.103Z,1.90
2023-05-15T21:21:04.434Z,1.63
2023-05-15T21:23:39.818Z,2.10
2023-05-15T21:26:15.747Z,2.45
2023-05-15T21:28:47.069Z,2.40
2023-05-15T21:31:18.278Z,2.30
2023-05-15T21:33:49.434Z,2.20
2023-05-15T21:36:19.459Z,2.70
2023-05-15T21:38:50.761Z,2.53
2023-05-15T21:41:21.943Z,2.05
2023-05-15T21:43:55.232Z,2.20
2023-05-15T21:46:26.461Z,1.95
2023-05-15T21:48:58.026Z,1.77
2023-05-15T21:51:28.177Z,1.83
2023-05-15T21:53:59.552Z,1.70
2023-05-15T21:56:31.415Z,1.80
2023-05-15T21:59:01.287Z,1.83
2023-05-15T22:01:31.645Z,1.80
2023-05-15T22:04:02.320Z,1.92
2023-05-15T22:06:33.911Z,1.83
2023-05-15T22:09:04.472Z,2.10
2023-05-15T22:11:34.429Z,2.10
2023-05-15T22:14:04.359Z,1.90
2023-05-15T22:16:34.282Z,1.90
2023-05-15T22:19:05.082Z,1.80
2023-05-15T22:21:37.076Z,1.65
2023-05-15T22:24:07.987Z,1.88
2023-05-15T22:26:37.943Z,2.00
2023-05-15T22:29:08.029Z,2.03
2023-05-15T22:31:38.464Z,1.80
2023-05-15T22:34:09.263Z,2.35
2023-05-15T22:36:39.442Z,1.90
2023-05-15T22:39:09.454Z,2.00
2023-05-15T22:41:39.600Z,2.20
2023-05-15T22:44:10.354Z,1.90
2023-05-15T22:46:41.798Z,2.03
2023-05-15T22:49:21.077Z,2.00
2023-05-15T22:51:54.593Z,2.10
2023-05-15T22:54:26.664Z,2.08
2023-05-15T22:57:00.158Z,2.60
2023-05-15T22:59:31.747Z,2.75
2023-05-15T23:02:03.379Z,2.67
2023-05-15T23:04:36.024Z,2.38
2023-05-15T23:07:07.589Z,2.25
2023-05-15T23:09:40.432Z,1.95
2023-05-15T23:12:12.077Z,2.00
2023-05-15T23:14:43.758Z,2.17
2023-05-15T23:17:15.405Z,2.00
2023-05-15T23:19:46.408Z,2.10
2023-05-15T23:22:19.226Z,2.15
2023-05-15T23:24:52.453Z,1.90
2023-05-15T23:27:28.724Z,2.05
2023-05-15T23:30:02.499Z,1.77
2023-05-15T23:32:33.057Z,2.08
2023-05-15T23:35:08.267Z,2.00
2023-05-15T23:37:40.800Z,1.98
2023-05-15T23:40:11.269Z,2.10
2023-05-15T23:42:41.872Z,2.20
2023-05-15T23:45:17.046Z,2.10
2023-05-15T23:47:48.012Z,2.22
2023-05-15T23:50:22.612Z,2.47
2023-05-15T23:52:57.197Z,2.65
2023-05-15T23:55:29.108Z,1.90
2023-05-15T23:58:02.436Z,2.10
